sensor_id;sensor_type;location;lat;lon;timestamp;pressure;altitude;pressure_sealevel;temperature;humidity
35848;BME280;22332;51.954;20.118;2023-01-27T00:02:59;100506.54;;;2.62;73.43
35848;BME280;22332;51.954;20.118;2023-01-27T00:06:05;100504.80;;;2.64;73.53
35848;BME280;22332;51.954;20.118;2023-01-27T00:09:15;100502.95;;;2.63;73.50
35848;BME280;22332;51.954;20.118;2023-01-27T00:12:22;100503.95;;;2.61;73.37
35848;BME280;22332;51.954;20.118;2023-01-27T00:15:46;100499.77;;;2.58;73.57
35848;BME280;22332;51.954;20.118;2023-01-27T00:18:51;100502.23;;;2.54;73.61
35848;BME280;22332;51.954;20.118;2023-01-27T00:21:57;100502.39;;;2.52;73.42
35848;BME280;22332;51.954;20.118;2023-01-27T00:25:19;100503.19;;;2.47;73.49
35848;BME280;22332;51.954;20.118;2023-01-27T00:28:25;100502.49;;;2.45;73.69
35848;BME280;22332;51.954;20.118;2023-01-27T00:31:34;100506.98;;;2.43;73.66
35848;BME280;22332;51.954;20.118;2023-01-27T00:34:57;100507.30;;;2.41;73.68
35848;BME280;22332;51.954;20.118;2023-01-27T00:38:03;100511.70;;;2.41;73.69
35848;BME280;22332;51.954;20.118;2023-01-27T00:41:10;100517.02;;;2.40;73.60
35848;BME280;22332;51.954;20.118;2023-01-27T00:44:23;100516.71;;;2.39;73.75
35848;BME280;22332;51.954;20.118;2023-01-27T00:47:29;100518.91;;;2.34;73.62
35848;BME280;22332;51.954;20.118;2023-01-27T00:50:34;100524.90;;;2.31;73.63
35848;BME280;22332;51.954;20.118;2023-01-27T00:53:40;100524.85;;;2.29;73.68
35848;BME280;22332;51.954;20.118;2023-01-27T00:56:46;100524.32;;;2.26;73.79
35848;BME280;22332;51.954;20.118;2023-01-27T00:59:52;100527.00;;;2.26;73.98
35848;BME280;22332;51.954;20.118;2023-01-27T01:02:57;100529.63;;;2.26;74.01
35848;BME280;22332;51.954;20.118;2023-01-27T01:06:06;100525.41;;;2.29;74.18
35848;BME280;22332;51.954;20.118;2023-01-27T01:09:12;100530.17;;;2.34;73.99
35848;BME280;22332;51.954;20.118;2023-01-27T01:12:17;100528.23;;;2.43;73.84
35848;BME280;22332;51.954;20.118;2023-01-27T01:15:23;100529.27;;;2.49;73.81
35848;BME280;22332;51.954;20.118;2023-01-27T01:18:28;100530.24;;;2.53;73.72
35848;BME280;22332;51.954;20.118;2023-01-27T01:21:35;100525.36;;;2.55;73.75
35848;BME280;22332;51.954;20.118;2023-01-27T01:24:41;100527.55;;;2.57;73.72
35848;BME280;22332;51.954;20.118;2023-01-27T01:27:47;100527.45;;;2.55;73.71
35848;BME280;22332;51.954;20.118;2023-01-27T01:30:52;100522.48;;;2.53;73.92
35848;BME280;22332;51.954;20.118;2023-01-27T01:33:58;100524.69;;;2.52;73.71
35848;BME280;22332;51.954;20.118;2023-01-27T01:37:03;100517.82;;;2.47;73.88
35848;BME280;22332;51.954;20.118;2023-01-27T01:40:11;100516.95;;;2.43;73.70
35848;BME280;22332;51.954;20.118;2023-01-27T01:43:18;100514.14;;;2.41;73.98
35848;BME280;22332;51.954;20.118;2023-01-27T01:46:26;100514.61;;;2.35;73.87
35848;BME280;22332;51.954;20.118;2023-01-27T01:49:35;100511.50;;;2.32;73.94
35848;BME280;22332;51.954;20.118;2023-01-27T01:52:43;100518.08;;;2.31;74.15
35848;BME280;22332;51.954;20.118;2023-01-27T01:55:49;100514.92;;;2.28;74.12
35848;BME280;22332;51.954;20.118;2023-01-27T01:58:57;100516.38;;;2.27;74.15
35848;BME280;22332;51.954;20.118;2023-01-27T02:02:07;100516.26;;;2.26;74.11
35848;BME280;22332;51.954;20.118;2023-01-27T02:05:16;100518.88;;;2.23;74.27
35848;BME280;22332;51.954;20.118;2023-01-27T02:08:26;100519.70;;;2.22;74.40
35848;BME280;22332;51.954;20.118;2023-01-27T02:11:33;100519.00;;;2.21;74.28
35848;BME280;22332;51.954;20.118;2023-01-27T02:14:39;100521.21;;;2.23;74.19
35848;BME280;22332;51.954;20.118;2023-01-27T02:17:45;100516.44;;;2.23;74.29
35848;BME280;22332;51.954;20.118;2023-01-27T02:20:53;100517.12;;;2.29;74.26
35848;BME280;22332;51.954;20.118;2023-01-27T02:24:01;100518.04;;;2.34;74.30
35848;BME280;22332;51.954;20.118;2023-01-27T02:27:14;100517.91;;;2.37;74.38
35848;BME280;22332;51.954;20.118;2023-01-27T02:30:21;100516.67;;;2.40;74.30
35848;BME280;22332;51.954;20.118;2023-01-27T02:33:27;100518.18;;;2.41;74.14
35848;BME280;22332;51.954;20.118;2023-01-27T02:36:35;100522.98;;;2.40;74.27
35848;BME280;22332;51.954;20.118;2023-01-27T02:39:44;100519.83;;;2.40;74.41
35848;BME280;22332;51.954;20.118;2023-01-27T02:42:54;100520.50;;;2.40;74.38
35848;BME280;22332;51.954;20.118;2023-01-27T02:46:01;100518.20;;;2.41;74.41
35848;BME280;22332;51.954;20.118;2023-01-27T02:49:06;100522.40;;;2.38;74.41
35848;BME280;22332;51.954;20.118;2023-01-27T02:52:13;100523.98;;;2.32;74.35
35848;BME280;22332;51.954;20.118;2023-01-27T02:55:19;100530.97;;;2.29;74.67
35848;BME280;22332;51.954;20.118;2023-01-27T02:58:26;100528.30;;;2.27;74.66
35848;BME280;22332;51.954;20.118;2023-01-27T03:01:36;100530.38;;;2.25;74.59
35848;BME280;22332;51.954;20.118;2023-01-27T03:04:42;100526.64;;;2.23;74.65
35848;BME280;22332;51.954;20.118;2023-01-27T03:07:47;100527.23;;;2.21;74.63
35848;BME280;22332;51.954;20.118;2023-01-27T03:10:53;100527.64;;;2.23;74.71
35848;BME280;22332;51.954;20.118;2023-01-27T03:13:59;100530.45;;;2.27;74.68
35848;BME280;22332;51.954;20.118;2023-01-27T03:17:05;100534.17;;;2.29;74.83
35848;BME280;22332;51.954;20.118;2023-01-27T03:20:28;100536.73;;;2.33;74.83
35848;BME280;22332;51.954;20.118;2023-01-27T03:23:34;100538.48;;;2.33;74.78
35848;BME280;22332;51.954;20.118;2023-01-27T03:26:41;100538.20;;;2.34;74.81
35848;BME280;22332;51.954;20.118;2023-01-27T03:29:47;100538.74;;;2.34;74.92
35848;BME280;22332;51.954;20.118;2023-01-27T03:33:02;100541.48;;;2.35;74.88
35848;BME280;22332;51.954;20.118;2023-01-27T03:36:44;100539.35;;;2.36;75.07
35848;BME280;22332;51.954;20.118;2023-01-27T03:40:09;100538.41;;;2.34;74.95
35848;BME280;22332;51.954;20.118;2023-01-27T03:43:34;100539.74;;;2.30;74.81
35848;BME280;22332;51.954;20.118;2023-01-27T03:46:57;100541.80;;;2.25;74.91
35848;BME280;22332;51.954;20.118;2023-01-27T03:50:03;100538.82;;;2.19;75.23
35848;BME280;22332;51.954;20.118;2023-01-27T03:53:14;100541.17;;;2.14;75.16
35848;BME280;22332;51.954;20.118;2023-01-27T03:56:21;100541.84;;;2.09;75.24
35848;BME280;22332;51.954;20.118;2023-01-27T03:59:27;100538.75;;;2.08;75.29
35848;BME280;22332;51.954;20.118;2023-01-27T04:02:34;100541.64;;;2.10;75.42
35848;BME280;22332;51.954;20.118;2023-01-27T04:05:57;100538.67;;;2.15;75.43
35848;BME280;22332;51.954;20.118;2023-01-27T04:09:25;100543.35;;;2.22;75.20
35848;BME280;22332;51.954;20.118;2023-01-27T04:12:31;100542.43;;;2.29;75.34
35848;BME280;22332;51.954;20.118;2023-01-27T04:15:37;100541.49;;;2.32;75.38
35848;BME280;22332;51.954;20.118;2023-01-27T04:18:42;100540.61;;;2.35;75.24
35848;BME280;22332;51.954;20.118;2023-01-27T04:21:50;100540.64;;;2.38;75.32
35848;BME280;22332;51.954;20.118;2023-01-27T04:24:56;100544.63;;;2.39;75.19
35848;BME280;22332;51.954;20.118;2023-01-27T04:28:01;100546.15;;;2.37;75.23
35848;BME280;22332;51.954;20.118;2023-01-27T04:31:07;100546.23;;;2.35;75.32
35848;BME280;22332;51.954;20.118;2023-01-27T04:34:13;100551.33;;;2.35;75.28
35848;BME280;22332;51.954;20.118;2023-01-27T04:37:19;100552.45;;;2.34;75.34
35848;BME280;22332;51.954;20.118;2023-01-27T04:40:24;100555.45;;;2.31;75.47
35848;BME280;22332;51.954;20.118;2023-01-27T04:43:30;100554.66;;;2.30;75.48
35848;BME280;22332;51.954;20.118;2023-01-27T04:46:35;100561.04;;;2.29;75.38
35848;BME280;22332;51.954;20.118;2023-01-27T04:49:41;100562.93;;;2.26;75.44
35848;BME280;22332;51.954;20.118;2023-01-27T04:52:47;100565.48;;;2.25;75.50
35848;BME280;22332;51.954;20.118;2023-01-27T04:55:59;100567.68;;;2.26;75.60
35848;BME280;22332;51.954;20.118;2023-01-27T04:59:07;100563.96;;;2.30;75.64
35848;BME280;22332;51.954;20.118;2023-01-27T05:02:14;100565.56;;;2.35;75.43
35848;BME280;22332;51.954;20.118;2023-01-27T05:05:20;100572.25;;;2.41;75.63
35848;BME280;22332;51.954;20.118;2023-01-27T05:08:25;100568.75;;;2.41;75.20
35848;BME280;22332;51.954;20.118;2023-01-27T05:11:31;100570.81;;;2.44;75.37
35848;BME280;22332;51.954;20.118;2023-01-27T05:14:36;100571.15;;;2.47;75.58
35848;BME280;22332;51.954;20.118;2023-01-27T05:17:42;100573.20;;;2.48;75.45
35848;BME280;22332;51.954;20.118;2023-01-27T05:20:47;100579.48;;;2.49;75.39
35848;BME280;22332;51.954;20.118;2023-01-27T05:23:53;100580.98;;;2.47;75.36
35848;BME280;22332;51.954;20.118;2023-01-27T05:26:58;100577.85;;;2.47;75.77
35848;BME280;22332;51.954;20.118;2023-01-27T05:30:06;100579.81;;;2.47;75.56
35848;BME280;22332;51.954;20.118;2023-01-27T05:33:11;100578.61;;;2.46;75.46
35848;BME280;22332;51.954;20.118;2023-01-27T05:36:18;100583.27;;;2.45;75.46
35848;BME280;22332;51.954;20.118;2023-01-27T05:39:24;100586.67;;;2.38;75.54
35848;BME280;22332;51.954;20.118;2023-01-27T05:42:29;100585.14;;;2.34;75.67
35848;BME280;22332;51.954;20.118;2023-01-27T05:45:35;100587.73;;;2.34;75.77
35848;BME280;22332;51.954;20.118;2023-01-27T05:48:42;100588.54;;;2.39;75.67
35848;BME280;22332;51.954;20.118;2023-01-27T05:51:48;100590.83;;;2.44;75.64
35848;BME280;22332;51.954;20.118;2023-01-27T05:54:54;100587.92;;;2.52;75.74
35848;BME280;22332;51.954;20.118;2023-01-27T05:57:59;100588.91;;;2.53;75.40
35848;BME280;22332;51.954;20.118;2023-01-27T06:01:09;100588.11;;;2.43;75.54
35848;BME280;22332;51.954;20.118;2023-01-27T06:04:15;100597.30;;;2.45;75.59
35848;BME280;22332;51.954;20.118;2023-01-27T06:07:21;100601.61;;;2.46;75.75
35848;BME280;22332;51.954;20.118;2023-01-27T06:10:26;100604.10;;;2.48;75.58
35848;BME280;22332;51.954;20.118;2023-01-27T06:13:32;100604.34;;;2.48;75.49
35848;BME280;22332;51.954;20.118;2023-01-27T06:16:39;100608.95;;;2.46;75.54
35848;BME280;22332;51.954;20.118;2023-01-27T06:19:44;100607.63;;;2.45;75.62
35848;BME280;22332;51.954;20.118;2023-01-27T06:22:50;100614.36;;;2.44;75.58
35848;BME280;22332;51.954;20.118;2023-01-27T06:25:59;100620.02;;;2.41;75.77
35848;BME280;22332;51.954;20.118;2023-01-27T06:29:05;100626.53;;;2.41;75.79
35848;BME280;22332;51.954;20.118;2023-01-27T06:32:11;100629.16;;;2.41;75.92
35848;BME280;22332;51.954;20.118;2023-01-27T06:35:17;100629.91;;;2.40;75.82
35848;BME280;22332;51.954;20.118;2023-01-27T06:38:22;100632.21;;;2.42;75.82
35848;BME280;22332;51.954;20.118;2023-01-27T06:41:28;100636.73;;;2.49;75.82
35848;BME280;22332;51.954;20.118;2023-01-27T06:44:33;100643.65;;;2.54;75.91
35848;BME280;22332;51.954;20.118;2023-01-27T06:47:40;100646.63;;;2.57;75.69
35848;BME280;22332;51.954;20.118;2023-01-27T06:50:45;100646.08;;;2.57;75.67
35848;BME280;22332;51.954;20.118;2023-01-27T06:53:51;100642.67;;;2.58;75.91
35848;BME280;22332;51.954;20.118;2023-01-27T06:56:56;100645.63;;;2.59;75.91
35848;BME280;22332;51.954;20.118;2023-01-27T07:00:03;100643.79;;;2.54;75.75
35848;BME280;22332;51.954;20.118;2023-01-27T07:03:10;100642.36;;;2.52;75.91
35848;BME280;22332;51.954;20.118;2023-01-27T07:06:16;100644.06;;;2.52;75.88
35848;BME280;22332;51.954;20.118;2023-01-27T07:09:23;100645.25;;;2.50;75.83
35848;BME280;22332;51.954;20.118;2023-01-27T07:12:29;100640.13;;;2.48;75.91
35848;BME280;22332;51.954;20.118;2023-01-27T07:15:34;100641.51;;;2.48;75.92
35848;BME280;22332;51.954;20.118;2023-01-27T07:18:40;100645.06;;;2.47;75.95
35848;BME280;22332;51.954;20.118;2023-01-27T07:21:45;100649.23;;;2.48;75.94
35848;BME280;22332;51.954;20.118;2023-01-27T07:24:51;100650.63;;;2.51;76.02
35848;BME280;22332;51.954;20.118;2023-01-27T07:27:59;100653.85;;;2.56;75.86
35848;BME280;22332;51.954;20.118;2023-01-27T07:31:05;100654.52;;;2.66;76.01
35848;BME280;22332;51.954;20.118;2023-01-27T07:34:11;100656.89;;;2.73;75.83
35848;BME280;22332;51.954;20.118;2023-01-27T07:37:16;100656.21;;;2.79;75.91
35848;BME280;22332;51.954;20.118;2023-01-27T07:40:22;100654.71;;;2.83;75.70
35848;BME280;22332;51.954;20.118;2023-01-27T07:43:27;100652.54;;;2.84;75.69
35848;BME280;22332;51.954;20.118;2023-01-27T07:46:33;100651.48;;;2.90;75.74
35848;BME280;22332;51.954;20.118;2023-01-27T07:49:38;100652.73;;;2.92;75.61
35848;BME280;22332;51.954;20.118;2023-01-27T07:52:44;100653.92;;;2.93;75.50
35848;BME280;22332;51.954;20.118;2023-01-27T07:55:49;100656.42;;;2.95;75.54
35848;BME280;22332;51.954;20.118;2023-01-27T07:58:55;100653.85;;;2.94;75.45
35848;BME280;22332;51.954;20.118;2023-01-27T08:02:01;100658.16;;;2.89;75.37
35848;BME280;22332;51.954;20.118;2023-01-27T08:05:08;100657.73;;;2.85;75.51
35848;BME280;22332;51.954;20.118;2023-01-27T08:08:14;100658.61;;;2.82;75.62
35848;BME280;22332;51.954;20.118;2023-01-27T08:11:20;100656.80;;;2.83;75.29
35848;BME280;22332;51.954;20.118;2023-01-27T08:14:25;100662.62;;;2.83;75.24
35848;BME280;22332;51.954;20.118;2023-01-27T08:17:31;100662.88;;;2.82;75.25
35848;BME280;22332;51.954;20.118;2023-01-27T08:20:36;100663.10;;;2.81;75.27
35848;BME280;22332;51.954;20.118;2023-01-27T08:23:42;100665.62;;;2.80;75.14
35848;BME280;22332;51.954;20.118;2023-01-27T08:26:47;100671.15;;;2.81;75.10
35848;BME280;22332;51.954;20.118;2023-01-27T08:29:53;100670.52;;;2.83;75.38
35848;BME280;22332;51.954;20.118;2023-01-27T08:32:59;100669.45;;;2.83;75.14
35848;BME280;22332;51.954;20.118;2023-01-27T08:36:08;100675.52;;;2.88;75.22
35848;BME280;22332;51.954;20.118;2023-01-27T08:39:14;100678.73;;;2.98;75.22
35848;BME280;22332;51.954;20.118;2023-01-27T08:42:20;100674.48;;;3.05;74.98
35848;BME280;22332;51.954;20.118;2023-01-27T08:45:25;100674.63;;;3.10;74.87
35848;BME280;22332;51.954;20.118;2023-01-27T08:48:31;100675.67;;;3.19;75.16
35848;BME280;22332;51.954;20.118;2023-01-27T08:51:37;100685.59;;;3.27;74.92
35848;BME280;22332;51.954;20.118;2023-01-27T08:54:43;100687.82;;;3.30;74.76
35848;BME280;22332;51.954;20.118;2023-01-27T08:57:48;100693.16;;;3.35;74.80
35848;BME280;22332;51.954;20.118;2023-01-27T09:00:54;100692.17;;;3.40;74.67
35848;BME280;22332;51.954;20.118;2023-01-27T09:03:59;100694.70;;;3.44;74.59
35848;BME280;22332;51.954;20.118;2023-01-27T09:07:05;100695.20;;;3.56;74.63
35848;BME280;22332;51.954;20.118;2023-01-27T09:10:11;100694.97;;;3.65;74.35
35848;BME280;22332;51.954;20.118;2023-01-27T09:13:17;100700.78;;;3.76;74.24
35848;BME280;22332;51.954;20.118;2023-01-27T09:16:25;100700.20;;;3.82;73.61
35848;BME280;22332;51.954;20.118;2023-01-27T09:19:31;100703.23;;;3.84;73.82
35848;BME280;22332;51.954;20.118;2023-01-27T09:22:38;100706.17;;;3.88;73.93
35848;BME280;22332;51.954;20.118;2023-01-27T09:25:44;100701.58;;;3.88;73.19
35848;BME280;22332;51.954;20.118;2023-01-27T09:28:50;100702.39;;;3.84;73.79
35848;BME280;22332;51.954;20.118;2023-01-27T09:31:55;100695.97;;;3.90;73.82
35848;BME280;22332;51.954;20.118;2023-01-27T09:35:01;100694.56;;;3.90;73.24
35848;BME280;22332;51.954;20.118;2023-01-27T09:38:07;100702.75;;;3.84;73.10
35848;BME280;22332;51.954;20.118;2023-01-27T09:41:27;100704.27;;;3.74;73.00
35848;BME280;22332;51.954;20.118;2023-01-27T09:45:02;100703.38;;;3.71;73.10
35848;BME280;22332;51.954;20.118;2023-01-27T09:48:32;100698.98;;;3.74;73.25
35848;BME280;22332;51.954;20.118;2023-01-27T09:51:50;100699.29;;;3.77;72.53
35848;BME280;22332;51.954;20.118;2023-01-27T09:55:05;100698.48;;;3.63;71.94
35848;BME280;22332;51.954;20.118;2023-01-27T09:58:24;100699.94;;;3.50;71.88
35848;BME280;22332;51.954;20.118;2023-01-27T10:01:40;100705.63;;;3.38;72.37
35848;BME280;22332;51.954;20.118;2023-01-27T10:05:00;100711.66;;;3.29;71.90
35848;BME280;22332;51.954;20.118;2023-01-27T10:08:31;100713.69;;;3.27;72.18
35848;BME280;22332;51.954;20.118;2023-01-27T10:11:50;100712.30;;;3.22;71.35
35848;BME280;22332;51.954;20.118;2023-01-27T10:15:09;100713.91;;;3.21;71.98
35848;BME280;22332;51.954;20.118;2023-01-27T10:18:33;100716.59;;;3.18;72.07
35848;BME280;22332;51.954;20.118;2023-01-27T10:21:48;100717.39;;;3.19;72.53
35848;BME280;22332;51.954;20.118;2023-01-27T10:25:06;100716.36;;;3.30;72.35
35848;BME280;22332;51.954;20.118;2023-01-27T10:28:19;100720.91;;;3.41;71.94
35848;BME280;22332;51.954;20.118;2023-01-27T10:31:28;100721.38;;;3.37;71.21
35848;BME280;22332;51.954;20.118;2023-01-27T10:34:46;100719.77;;;3.37;72.34
35848;BME280;22332;51.954;20.118;2023-01-27T10:38:05;100716.90;;;3.44;71.61
35848;BME280;22332;51.954;20.118;2023-01-27T10:41:21;100714.64;;;3.43;72.18
35848;BME280;22332;51.954;20.118;2023-01-27T10:44:45;100714.95;;;3.61;72.23
35848;BME280;22332;51.954;20.118;2023-01-27T10:51:22;100707.14;;;3.65;71.49
35848;BME280;22332;51.954;20.118;2023-01-27T10:54:33;100715.31;;;3.71;71.48
35848;BME280;22332;51.954;20.118;2023-01-27T10:57:43;100718.34;;;3.79;71.21
35848;BME280;22332;51.954;20.118;2023-01-27T11:00:52;100717.58;;;3.91;71.10
35848;BME280;22332;51.954;20.118;2023-01-27T11:04:02;100712.46;;;4.00;70.45
35848;BME280;22332;51.954;20.118;2023-01-27T11:07:15;100710.42;;;3.99;70.67
35848;BME280;22332;51.954;20.118;2023-01-27T11:10:35;100709.81;;;4.08;70.95
35848;BME280;22332;51.954;20.118;2023-01-27T11:13:42;100699.84;;;4.13;70.76
35848;BME280;22332;51.954;20.118;2023-01-27T11:16:51;100698.34;;;4.11;69.75
35848;BME280;22332;51.954;20.118;2023-01-27T11:20:02;100689.55;;;4.08;70.66
35848;BME280;22332;51.954;20.118;2023-01-27T11:23:16;100688.63;;;4.14;70.49
35848;BME280;22332;51.954;20.118;2023-01-27T11:26:36;100689.28;;;4.12;70.30
35848;BME280;22332;51.954;20.118;2023-01-27T11:29:50;100689.65;;;4.07;70.46
35848;BME280;22332;51.954;20.118;2023-01-27T11:33:01;100684.70;;;4.07;70.51
35848;BME280;22332;51.954;20.118;2023-01-27T11:36:09;100682.70;;;4.08;70.53
35848;BME280;22332;51.954;20.118;2023-01-27T11:39:15;100684.23;;;4.09;70.42
35848;BME280;22332;51.954;20.118;2023-01-27T11:42:21;100683.55;;;4.06;70.19
35848;BME280;22332;51.954;20.118;2023-01-27T11:45:31;100679.15;;;4.05;70.60
35848;BME280;22332;51.954;20.118;2023-01-27T11:48:40;100680.98;;;4.07;69.89
35848;BME280;22332;51.954;20.118;2023-01-27T11:51:46;100681.66;;;4.02;69.98
35848;BME280;22332;51.954;20.118;2023-01-27T11:54:55;100681.64;;;4.05;70.04
35848;BME280;22332;51.954;20.118;2023-01-27T11:58:11;100682.92;;;4.05;68.77
35848;BME280;22332;51.954;20.118;2023-01-27T12:01:20;100681.30;;;3.91;69.19
35848;BME280;22332;51.954;20.118;2023-01-27T12:04:40;100683.90;;;3.87;69.72
35848;BME280;22332;51.954;20.118;2023-01-27T12:07:55;100686.48;;;3.82;68.54
35848;BME280;22332;51.954;20.118;2023-01-27T12:11:17;100689.55;;;3.73;68.47
35848;BME280;22332;51.954;20.118;2023-01-27T12:14:23;100690.87;;;3.55;68.71
35848;BME280;22332;51.954;20.118;2023-01-27T12:17:34;100691.06;;;3.49;69.38
35848;BME280;22332;51.954;20.118;2023-01-27T12:20:45;100694.35;;;3.47;69.11
35848;BME280;22332;51.954;20.118;2023-01-27T12:23:52;100699.77;;;3.45;69.67
35848;BME280;22332;51.954;20.118;2023-01-27T12:27:01;100699.45;;;3.44;69.17
35848;BME280;22332;51.954;20.118;2023-01-27T12:30:19;100693.06;;;3.31;68.89
35848;BME280;22332;51.954;20.118;2023-01-27T12:33:29;100695.09;;;3.15;68.96
35848;BME280;22332;51.954;20.118;2023-01-27T12:36:39;100693.35;;;3.12;69.19
35848;BME280;22332;51.954;20.118;2023-01-27T12:39:50;100699.26;;;3.07;68.67
35848;BME280;22332;51.954;20.118;2023-01-27T12:43:13;100700.41;;;2.97;68.57
35848;BME280;22332;51.954;20.118;2023-01-27T12:46:22;100703.35;;;2.89;68.83
35848;BME280;22332;51.954;20.118;2023-01-27T12:49:32;100700.13;;;2.96;69.19
35848;BME280;22332;51.954;20.118;2023-01-27T12:52:38;100701.54;;;3.02;69.23
35848;BME280;22332;51.954;20.118;2023-01-27T12:55:46;100698.42;;;2.95;68.81
35848;BME280;22332;51.954;20.118;2023-01-27T12:58:58;100696.11;;;2.87;69.17
35848;BME280;22332;51.954;20.118;2023-01-27T13:02:16;100696.50;;;2.86;69.33
35848;BME280;22332;51.954;20.118;2023-01-27T13:05:23;100697.90;;;2.81;69.56
35848;BME280;22332;51.954;20.118;2023-01-27T13:08:32;100695.56;;;2.79;69.77
35848;BME280;22332;51.954;20.118;2023-01-27T13:11:41;100691.70;;;2.72;69.67
35848;BME280;22332;51.954;20.118;2023-01-27T13:14:51;100693.23;;;2.67;69.96
35848;BME280;22332;51.954;20.118;2023-01-27T13:17:59;100689.71;;;2.67;69.45
35848;BME280;22332;51.954;20.118;2023-01-27T13:21:12;100691.04;;;2.63;69.51
35848;BME280;22332;51.954;20.118;2023-01-27T13:24:26;100690.05;;;2.62;69.52
35848;BME280;22332;51.954;20.118;2023-01-27T13:27:39;100695.72;;;2.67;70.01
35848;BME280;22332;51.954;20.118;2023-01-27T13:30:47;100702.58;;;2.67;69.60
35848;BME280;22332;51.954;20.118;2023-01-27T13:33:56;100701.74;;;2.57;69.95
35848;BME280;22332;51.954;20.118;2023-01-27T13:37:08;100705.17;;;2.59;69.99
35848;BME280;22332;51.954;20.118;2023-01-27T13:40:19;100710.39;;;2.60;70.01
35848;BME280;22332;51.954;20.118;2023-01-27T13:43:29;100714.42;;;2.54;69.96
35848;BME280;22332;51.954;20.118;2023-01-27T13:46:38;100722.92;;;2.52;70.32
35848;BME280;22332;51.954;20.118;2023-01-27T13:49:46;100726.30;;;2.55;70.45
35848;BME280;22332;51.954;20.118;2023-01-27T13:52:55;100724.36;;;2.58;70.29
35848;BME280;22332;51.954;20.118;2023-01-27T13:56:10;100724.96;;;2.59;70.33
35848;BME280;22332;51.954;20.118;2023-01-27T13:59:38;100727.84;;;2.64;70.65
35848;BME280;22332;51.954;20.118;2023-01-27T14:06:21;100724.92;;;2.60;70.85
35848;BME280;22332;51.954;20.118;2023-01-27T14:09:43;100726.14;;;2.63;70.78
35848;BME280;22332;51.954;20.118;2023-01-27T14:13:09;100721.72;;;2.64;70.80
35848;BME280;22332;51.954;20.118;2023-01-27T14:16:25;100723.48;;;2.61;70.99
35848;BME280;22332;51.954;20.118;2023-01-27T14:19:41;100723.77;;;2.59;71.21
35848;BME280;22332;51.954;20.118;2023-01-27T14:22:55;100730.77;;;2.51;71.38
35848;BME280;22332;51.954;20.118;2023-01-27T14:26:12;100731.63;;;2.51;71.45
35848;BME280;22332;51.954;20.118;2023-01-27T14:29:29;100728.52;;;2.50;71.82
35848;BME280;22332;51.954;20.118;2023-01-27T14:32:42;100735.89;;;2.47;71.65
35848;BME280;22332;51.954;20.118;2023-01-27T14:35:55;100736.50;;;2.46;71.80
35848;BME280;22332;51.954;20.118;2023-01-27T14:39:04;100738.56;;;2.46;71.93
35848;BME280;22332;51.954;20.118;2023-01-27T14:42:25;100740.17;;;2.43;72.02
35848;BME280;22332;51.954;20.118;2023-01-27T14:45:35;100737.98;;;2.47;71.99
35848;BME280;22332;51.954;20.118;2023-01-27T14:48:55;100739.55;;;2.56;71.93
35848;BME280;22332;51.954;20.118;2023-01-27T14:52:09;100742.74;;;2.65;71.93
35848;BME280;22332;51.954;20.118;2023-01-27T14:55:27;100740.15;;;2.73;71.94
35848;BME280;22332;51.954;20.118;2023-01-27T14:58:47;100740.94;;;2.74;71.76
35848;BME280;22332;51.954;20.118;2023-01-27T15:01:58;100737.60;;;2.66;71.94
35848;BME280;22332;51.954;20.118;2023-01-27T15:05:13;100741.53;;;2.62;72.22
35848;BME280;22332;51.954;20.118;2023-01-27T15:08:28;100737.61;;;2.53;72.21
35848;BME280;22332;51.954;20.118;2023-01-27T15:11:52;100738.19;;;2.44;72.44
35848;BME280;22332;51.954;20.118;2023-01-27T15:15:16;100735.45;;;2.39;72.48
35848;BME280;22332;51.954;20.118;2023-01-27T15:18:36;100735.73;;;2.37;72.56
35848;BME280;22332;51.954;20.118;2023-01-27T15:25:38;100737.48;;;2.28;72.77
35848;BME280;22332;51.954;20.118;2023-01-27T15:28:47;100735.74;;;2.22;72.82
35848;BME280;22332;51.954;20.118;2023-01-27T15:32:23;100741.05;;;2.21;72.94
35848;BME280;22332;51.954;20.118;2023-01-27T15:35:38;100744.77;;;2.21;73.09
35848;BME280;22332;51.954;20.118;2023-01-27T15:38:59;100747.20;;;2.21;72.99
35848;BME280;22332;51.954;20.118;2023-01-27T15:42:14;100751.14;;;2.26;73.01
35848;BME280;22332;51.954;20.118;2023-01-27T15:45:30;100748.16;;;2.26;73.20
35848;BME280;22332;51.954;20.118;2023-01-27T15:48:38;100749.41;;;2.26;73.21
35848;BME280;22332;51.954;20.118;2023-01-27T15:51:44;100755.40;;;2.28;73.21
35848;BME280;22332;51.954;20.118;2023-01-27T15:54:51;100760.54;;;2.27;73.47
35848;BME280;22332;51.954;20.118;2023-01-27T15:58:14;100760.24;;;2.21;73.53
35848;BME280;22332;51.954;20.118;2023-01-27T16:01:28;100766.09;;;2.13;73.82
35848;BME280;22332;51.954;20.118;2023-01-27T16:04:34;100771.13;;;2.04;74.18
35848;BME280;22332;51.954;20.118;2023-01-27T16:07:40;100773.85;;;1.93;74.45
35848;BME280;22332;51.954;20.118;2023-01-27T16:10:46;100770.66;;;1.84;74.23
35848;BME280;22332;51.954;20.118;2023-01-27T16:13:52;100771.88;;;1.84;74.61
35848;BME280;22332;51.954;20.118;2023-01-27T16:17:23;100773.88;;;1.86;74.45
35848;BME280;22332;51.954;20.118;2023-01-27T16:20:31;100773.34;;;1.96;74.39
35848;BME280;22332;51.954;20.118;2023-01-27T16:23:41;100772.78;;;2.00;74.78
35848;BME280;22332;51.954;20.118;2023-01-27T16:26:53;100781.20;;;2.00;74.63
35848;BME280;22332;51.954;20.118;2023-01-27T16:30:11;100780.10;;;2.01;74.64
35848;BME280;22332;51.954;20.118;2023-01-27T16:33:23;100776.14;;;2.03;74.64
35848;BME280;22332;51.954;20.118;2023-01-27T16:36:31;100780.51;;;2.03;74.86
35848;BME280;22332;51.954;20.118;2023-01-27T16:39:44;100776.07;;;2.01;74.83
35848;BME280;22332;51.954;20.118;2023-01-27T16:42:58;100776.81;;;1.97;74.93
35848;BME280;22332;51.954;20.118;2023-01-27T16:46:09;100777.23;;;1.92;74.97